sensor_id;sensor_type;location;lat;lon;timestamp;temperature;humidity
18721;DHT22;9489;50.948;3.114;2023-05-24T00:00:08;9.80;99.90
18721;DHT22;9489;50.948;3.114;2023-05-24T00:02:40;9.80;99.90
18721;DHT22;9489;50.948;3.114;2023-05-24T00:05:07;9.80;99.90
18721;DHT22;9489;50.948;3.114;2023-05-24T00:07:35;9.70;99.90
18721;DHT22;9489;50.948;3.114;2023-05-24T00:10:02;9.70;99.90
18721;DHT22;9489;50.948;3.114;2023-05-24T00:12:28;9.70;99.90
18721;DHT22;9489;50.948;3.114;2023-05-24T00:14:54;9.60;99.90
18721;DHT22;9489;50.948;3.114;2023-05-24T00:17:20;9.60;99.90
18721;DHT22;9489;50.948;3.114;2023-05-24T00:19:46;9.60;99.90
18721;DHT22;9489;50.948;3.114;2023-05-24T00:22:11;9.60;99.90
18721;DHT22;9489;50.948;3.114;2023-05-24T00:24:39;9.60;99.90
18721;DHT22;9489;50.948;3.114;2023-05-24T00:27:05;9.50;99.90
18721;DHT22;9489;50.948;3.114;2023-05-24T00:29:31;9.40;99.90
18721;DHT22;9489;50.948;3.114;2023-05-24T00:31:57;9.50;99.90
18721;DHT22;9489;50.948;3.114;2023-05-24T00:34:23;9.40;99.90
18721;DHT22;9489;50.948;3.114;2023-05-24T00:36:48;9.40;99.90
18721;DHT22;9489;50.948;3.114;2023-05-24T00:39:14;9.40;99.90
18721;DHT22;9489;50.948;3.114;2023-05-24T00:41:40;9.40;99.90
18721;DHT22;9489;50.948;3.114;2023-05-24T00:44:05;9.40;99.90
18721;DHT22;9489;50.948;3.114;2023-05-24T00:46:31;9.30;99.90
18721;DHT22;9489;50.948;3.114;2023-05-24T00:48:58;9.20;99.90
18721;DHT22;9489;50.948;3.114;2023-05-24T00:51:25;9.20;99.90
18721;DHT22;9489;50.948;3.114;2023-05-24T00:53:54;9.20;99.90
18721;DHT22;9489;50.948;3.114;2023-05-24T00:56:20;9.20;99.90
18721;DHT22;9489;50.948;3.114;2023-05-24T00:58:47;9.30;99.90
18721;DHT22;9489;50.948;3.114;2023-05-24T01:01:15;9.30;99.90
18721;DHT22;9489;50.948;3.114;2023-05-24T01:03:40;9.20;99.90
18721;DHT22;9489;50.948;3.114;2023-05-24T01:06:07;9.10;99.90
18721;DHT22;9489;50.948;3.114;2023-05-24T01:19:34;9.10;99.90
18721;DHT22;9489;50.948;3.114;2023-05-24T01:25:14;9.10;99.90
18721;DHT22;9489;50.948;3.114;2023-05-24T01:27:42;9.10;99.90
18721;DHT22;9489;50.948;3.114;2023-05-24T01:30:09;9.10;99.90
18721;DHT22;9489;50.948;3.114;2023-05-24T01:32:35;9.10;99.90
18721;DHT22;9489;50.948;3.114;2023-05-24T01:35:00;9.00;99.90
18721;DHT22;9489;50.948;3.114;2023-05-24T01:37:26;9.00;99.90
18721;DHT22;9489;50.948;3.114;2023-05-24T01:39:52;9.00;99.90
18721;DHT22;9489;50.948;3.114;2023-05-24T01:48:18;8.80;99.90
18721;DHT22;9489;50.948;3.114;2023-05-24T01:51:00;8.80;99.90
18721;DHT22;9489;50.948;3.114;2023-05-24T01:53:38;8.90;99.90
18721;DHT22;9489;50.948;3.114;2023-05-24T01:56:05;8.80;99.90
18721;DHT22;9489;50.948;3.114;2023-05-24T01:58:32;8.70;99.90
18721;DHT22;9489;50.948;3.114;2023-05-24T02:00:58;8.70;99.90
18721;DHT22;9489;50.948;3.114;2023-05-24T02:03:24;8.70;99.90
18721;DHT22;9489;50.948;3.114;2023-05-24T02:05:50;8.60;99.90
18721;DHT22;9489;50.948;3.114;2023-05-24T02:08:16;8.70;99.90
18721;DHT22;9489;50.948;3.114;2023-05-24T02:10:41;8.60;99.90
18721;DHT22;9489;50.948;3.114;2023-05-24T02:13:08;8.60;99.90
18721;DHT22;9489;50.948;3.114;2023-05-24T02:15:34;8.60;99.90
18721;DHT22;9489;50.948;3.114;2023-05-24T02:18:00;8.60;99.90
18721;DHT22;9489;50.948;3.114;2023-05-24T02:20:26;8.60;99.90
18721;DHT22;9489;50.948;3.114;2023-05-24T02:22:55;8.60;99.90
18721;DHT22;9489;50.948;3.114;2023-05-24T02:25:23;8.50;99.90
18721;DHT22;9489;50.948;3.114;2023-05-24T02:27:48;8.60;99.90
18721;DHT22;9489;50.948;3.114;2023-05-24T02:30:14;8.60;99.90
18721;DHT22;9489;50.948;3.114;2023-05-24T02:32:40;8.60;99.90
18721;DHT22;9489;50.948;3.114;2023-05-24T02:35:06;8.50;99.90
18721;DHT22;9489;50.948;3.114;2023-05-24T02:37:32;8.60;99.90
18721;DHT22;9489;50.948;3.114;2023-05-24T02:39:58;8.50;99.90
18721;DHT22;9489;50.948;3.114;2023-05-24T02:42:23;8.50;99.90
18721;DHT22;9489;50.948;3.114;2023-05-24T02:44:49;8.50;99.90
18721;DHT22;9489;50.948;3.114;2023-05-24T02:47:17;8.50;99.90
18721;DHT22;9489;50.948;3.114;2023-05-24T02:49:43;8.40;99.90
18721;DHT22;9489;50.948;3.114;2023-05-24T02:52:09;8.50;99.90
18721;DHT22;9489;50.948;3.114;2023-05-24T02:54:34;8.50;99.90
18721;DHT22;9489;50.948;3.114;2023-05-24T02:57:01;8.40;99.90
18721;DHT22;9489;50.948;3.114;2023-05-24T02:59:27;8.40;99.90
18721;DHT22;9489;50.948;3.114;2023-05-24T03:01:53;8.40;99.90
18721;DHT22;9489;50.948;3.114;2023-05-24T03:04:19;8.50;99.90
18721;DHT22;9489;50.948;3.114;2023-05-24T03:06:44;8.40;99.90
18721;DHT22;9489;50.948;3.114;2023-05-24T03:09:11;8.30;99.90
18721;DHT22;9489;50.948;3.114;2023-05-24T03:11:37;8.20;99.90
18721;DHT22;9489;50.948;3.114;2023-05-24T03:14:03;8.20;99.90
18721;DHT22;9489;50.948;3.114;2023-05-24T03:16:30;8.20;99.90
18721;DHT22;9489;50.948;3.114;2023-05-24T03:18:56;8.30;99.90
18721;DHT22;9489;50.948;3.114;2023-05-24T03:21:24;8.20;99.90
18721;DHT22;9489;50.948;3.114;2023-05-24T03:23:49;8.20;99.90
18721;DHT22;9489;50.948;3.114;2023-05-24T03:26:15;8.20;99.90
18721;DHT22;9489;50.948;3.114;2023-05-24T03:28:43;8.10;99.90
18721;DHT22;9489;50.948;3.114;2023-05-24T03:31:10;8.20;99.90
18721;DHT22;9489;50.948;3.114;2023-05-24T03:33:36;8.20;99.90
18721;DHT22;9489;50.948;3.114;2023-05-24T03:36:02;8.20;99.90
18721;DHT22;9489;50.948;3.114;2023-05-24T03:38:28;8.30;99.90
18721;DHT22;9489;50.948;3.114;2023-05-24T03:40:54;8.30;99.90
18721;DHT22;9489;50.948;3.114;2023-05-24T03:43:20;8.30;99.90
18721;DHT22;9489;50.948;3.114;2023-05-24T03:45:46;8.30;99.90
18721;DHT22;9489;50.948;3.114;2023-05-24T03:48:12;8.20;99.90
18721;DHT22;9489;50.948;3.114;2023-05-24T03:50:37;8.20;99.90
18721;DHT22;9489;50.948;3.114;2023-05-24T03:53:04;8.20;99.90
18721;DHT22;9489;50.948;3.114;2023-05-24T03:55:29;8.20;99.90
18721;DHT22;9489;50.948;3.114;2023-05-24T03:57:55;8.20;99.90
18721;DHT22;9489;50.948;3.114;2023-05-24T04:00:21;8.30;99.90
18721;DHT22;9489;50.948;3.114;2023-05-24T04:02:46;8.30;99.90
18721;DHT22;9489;50.948;3.114;2023-05-24T04:05:12;8.30;99.90
18721;DHT22;9489;50.948;3.114;2023-05-24T04:07:39;8.30;99.90
18721;DHT22;9489;50.948;3.114;2023-05-24T04:10:06;8.30;99.90
18721;DHT22;9489;50.948;3.114;2023-05-24T04:12:32;8.30;99.90
18721;DHT22;9489;50.948;3.114;2023-05-24T04:14:59;8.30;99.90
18721;DHT22;9489;50.948;3.114;2023-05-24T04:17:25;8.30;99.90
18721;DHT22;9489;50.948;3.114;2023-05-24T04:19:52;8.30;99.90
18721;DHT22;9489;50.948;3.114;2023-05-24T04:22:18;8.30;99.90
18721;DHT22;9489;50.948;3.114;2023-05-24T04:24:44;8.30;99.90
18721;DHT22;9489;50.948;3.114;2023-05-24T04:27:10;8.30;99.90
18721;DHT22;9489;50.948;3.114;2023-05-24T04:29:37;8.40;99.90
18721;DHT22;9489;50.948;3.114;2023-05-24T04:32:03;8.40;99.90
18721;DHT22;9489;50.948;3.114;2023-05-24T04:34:30;8.40;99.90
18721;DHT22;9489;50.948;3.114;2023-05-24T04:37:01;8.50;99.90
18721;DHT22;9489;50.948;3.114;2023-05-24T04:39:29;8.50;99.90
18721;DHT22;9489;50.948;3.114;2023-05-24T04:41:55;8.50;99.90
18721;DHT22;9489;50.948;3.114;2023-05-24T04:44:22;8.60;99.90
18721;DHT22;9489;50.948;3.114;2023-05-24T04:46:49;8.60;99.90
18721;DHT22;9489;50.948;3.114;2023-05-24T04:49:14;8.70;99.90
18721;DHT22;9489;50.948;3.114;2023-05-24T04:51:40;8.80;99.90
18721;DHT22;9489;50.948;3.114;2023-05-24T04:54:06;8.90;99.90
18721;DHT22;9489;50.948;3.114;2023-05-24T04:56:35;8.90;99.90
18721;DHT22;9489;50.948;3.114;2023-05-24T04:59:11;9.00;99.90
18721;DHT22;9489;50.948;3.114;2023-05-24T05:01:38;9.00;99.90
18721;DHT22;9489;50.948;3.114;2023-05-24T05:04:03;9.10;99.90
18721;DHT22;9489;50.948;3.114;2023-05-24T05:06:29;9.10;99.90
18721;DHT22;9489;50.948;3.114;2023-05-24T05:08:56;9.20;99.90
18721;DHT22;9489;50.948;3.114;2023-05-24T05:11:21;9.30;99.90
18721;DHT22;9489;50.948;3.114;2023-05-24T05:13:47;9.30;99.90
18721;DHT22;9489;50.948;3.114;2023-05-24T05:16:13;9.30;99.90
18721;DHT22;9489;50.948;3.114;2023-05-24T05:18:39;9.30;99.90
18721;DHT22;9489;50.948;3.114;2023-05-24T05:21:05;9.40;99.90
18721;DHT22;9489;50.948;3.114;2023-05-24T05:23:31;9.50;99.90
18721;DHT22;9489;50.948;3.114;2023-05-24T05:25:57;9.60;99.90
18721;DHT22;9489;50.948;3.114;2023-05-24T05:28:22;9.70;99.90
18721;DHT22;9489;50.948;3.114;2023-05-24T05:30:48;9.90;99.90
18721;DHT22;9489;50.948;3.114;2023-05-24T05:33:14;10.00;99.90
18721;DHT22;9489;50.948;3.114;2023-05-24T05:35:40;10.20;99.90
18721;DHT22;9489;50.948;3.114;2023-05-24T05:38:05;10.40;99.90
18721;DHT22;9489;50.948;3.114;2023-05-24T05:40:31;10.50;99.90
18721;DHT22;9489;50.948;3.114;2023-05-24T05:42:57;10.60;99.90
18721;DHT22;9489;50.948;3.114;2023-05-24T05:45:23;10.70;99.90
18721;DHT22;9489;50.948;3.114;2023-05-24T05:47:48;10.90;99.90
18721;DHT22;9489;50.948;3.114;2023-05-24T05:50:14;11.10;99.90
18721;DHT22;9489;50.948;3.114;2023-05-24T05:52:40;11.40;99.90
18721;DHT22;9489;50.948;3.114;2023-05-24T05:55:07;11.60;99.90
18721;DHT22;9489;50.948;3.114;2023-05-24T05:57:33;11.70;93.90
18721;DHT22;9489;50.948;3.114;2023-05-24T05:59:58;11.70;85.60
18721;DHT22;9489;50.948;3.114;2023-05-24T06:02:24;11.90;77.80
18721;DHT22;9489;50.948;3.114;2023-05-24T06:04:50;12.00;63.10
18721;DHT22;9489;50.948;3.114;2023-05-24T06:07:15;12.10;59.20
18721;DHT22;9489;50.948;3.114;2023-05-24T06:09:41;12.20;59.60
18721;DHT22;9489;50.948;3.114;2023-05-24T06:12:07;12.20;53.60
18721;DHT22;9489;50.948;3.114;2023-05-24T06:14:32;12.30;37.40
18721;DHT22;9489;50.948;3.114;2023-05-24T06:16:59;12.30;18.20
18721;DHT22;9489;50.948;3.114;2023-05-24T06:19:24;12.40;27.90
18721;DHT22;9489;50.948;3.114;2023-05-24T06:21:51;12.50;17.10
18721;DHT22;9489;50.948;3.114;2023-05-24T06:24:17;12.50;12.30
18721;DHT22;9489;50.948;3.114;2023-05-24T06:26:45;12.70;1.00
18721;DHT22;9489;50.948;3.114;2023-05-24T06:29:10;12.70;1.00
18721;DHT22;9489;50.948;3.114;2023-05-24T06:31:36;12.80;1.00
18721;DHT22;9489;50.948;3.114;2023-05-24T06:34:02;12.90;1.00
18721;DHT22;9489;50.948;3.114;2023-05-24T06:36:28;13.00;1.00
18721;DHT22;9489;50.948;3.114;2023-05-24T06:38:53;13.20;1.00
18721;DHT22;9489;50.948;3.114;2023-05-24T06:41:19;13.30;1.00
18721;DHT22;9489;50.948;3.114;2023-05-24T06:43:45;13.40;1.00
18721;DHT22;9489;50.948;3.114;2023-05-24T06:46:11;13.40;1.00
18721;DHT22;9489;50.948;3.114;2023-05-24T06:48:36;13.50;1.00
18721;DHT22;9489;50.948;3.114;2023-05-24T06:51:02;13.70;1.00
18721;DHT22;9489;50.948;3.114;2023-05-24T06:53:28;13.80;1.00
18721;DHT22;9489;50.948;3.114;2023-05-24T06:55:54;13.90;1.00
18721;DHT22;9489;50.948;3.114;2023-05-24T06:58:19;14.00;1.00
18721;DHT22;9489;50.948;3.114;2023-05-24T07:00:45;14.10;1.00
18721;DHT22;9489;50.948;3.114;2023-05-24T07:03:12;14.20;1.00
18721;DHT22;9489;50.948;3.114;2023-05-24T07:05:37;14.40;1.00
18721;DHT22;9489;50.948;3.114;2023-05-24T07:08:03;14.50;1.00
18721;DHT22;9489;50.948;3.114;2023-05-24T07:10:29;14.50;1.00
18721;DHT22;9489;50.948;3.114;2023-05-24T07:12:55;14.60;1.00
18721;DHT22;9489;50.948;3.114;2023-05-24T07:15:20;14.60;1.00
18721;DHT22;9489;50.948;3.114;2023-05-24T07:17:46;14.70;1.00
18721;DHT22;9489;50.948;3.114;2023-05-24T07:20:12;14.60;1.00
18721;DHT22;9489;50.948;3.114;2023-05-24T07:22:39;14.80;1.00
18721;DHT22;9489;50.948;3.114;2023-05-24T07:25:06;14.70;1.00
18721;DHT22;9489;50.948;3.114;2023-05-24T07:27:31;14.70;1.00
18721;DHT22;9489;50.948;3.114;2023-05-24T07:29:57;14.80;99.90
18721;DHT22;9489;50.948;3.114;2023-05-24T07:32:23;14.90;99.90
18721;DHT22;9489;50.948;3.114;2023-05-24T07:34:49;14.90;99.90
18721;DHT22;9489;50.948;3.114;2023-05-24T07:37:15;14.90;99.90
18721;DHT22;9489;50.948;3.114;2023-05-24T07:39:42;14.80;99.90
18721;DHT22;9489;50.948;3.114;2023-05-24T07:42:08;14.90;99.90
18721;DHT22;9489;50.948;3.114;2023-05-24T07:44:33;15.10;11.40
18721;DHT22;9489;50.948;3.114;2023-05-24T07:46:59;15.20;1.00
18721;DHT22;9489;50.948;3.114;2023-05-24T07:49:27;15.30;1.00
18721;DHT22;9489;50.948;3.114;2023-05-24T07:51:53;15.30;1.00
18721;DHT22;9489;50.948;3.114;2023-05-24T07:54:22;15.30;1.00
18721;DHT22;9489;50.948;3.114;2023-05-24T07:56:48;15.20;1.00
18721;DHT22;9489;50.948;3.114;2023-05-24T07:59:13;15.30;1.00
18721;DHT22;9489;50.948;3.114;2023-05-24T08:01:39;15.30;1.00
18721;DHT22;9489;50.948;3.114;2023-05-24T08:04:06;15.40;1.00
18721;DHT22;9489;50.948;3.114;2023-05-24T08:06:34;15.50;1.00
18721;DHT22;9489;50.948;3.114;2023-05-24T08:09:00;15.50;1.00
18721;DHT22;9489;50.948;3.114;2023-05-24T08:11:26;15.70;1.00
18721;DHT22;9489;50.948;3.114;2023-05-24T08:13:52;15.70;99.90
18721;DHT22;9489;50.948;3.114;2023-05-24T08:16:18;15.80;99.90
18721;DHT22;9489;50.948;3.114;2023-05-24T08:18:43;16.00;1.00
18721;DHT22;9489;50.948;3.114;2023-05-24T08:21:09;16.40;1.00
18721;DHT22;9489;50.948;3.114;2023-05-24T08:23:35;16.50;1.00
18721;DHT22;9489;50.948;3.114;2023-05-24T08:26:01;16.80;99.90
18721;DHT22;9489;50.948;3.114;2023-05-24T08:28:27;17.10;1.00
18721;DHT22;9489;50.948;3.114;2023-05-24T08:30:53;17.30;1.00
18721;DHT22;9489;50.948;3.114;2023-05-24T08:33:19;17.40;1.00
18721;DHT22;9489;50.948;3.114;2023-05-24T08:35:47;17.70;1.00
18721;DHT22;9489;50.948;3.114;2023-05-24T08:38:13;18.20;99.90
18721;DHT22;9489;50.948;3.114;2023-05-24T08:40:39;18.50;1.00
18721;DHT22;9489;50.948;3.114;2023-05-24T08:43:05;18.70;1.00
18721;DHT22;9489;50.948;3.114;2023-05-24T08:45:37;18.20;1.00
18721;DHT22;9489;50.948;3.114;2023-05-24T08:48:04;18.20;1.00
18721;DHT22;9489;50.948;3.114;2023-05-24T08:50:31;18.00;99.90
18721;DHT22;9489;50.948;3.114;2023-05-24T08:52:58;17.90;1.00
18721;DHT22;9489;50.948;3.114;2023-05-24T08:55:24;18.00;99.90
18721;DHT22;9489;50.948;3.114;2023-05-24T08:57:52;17.90;1.00
18721;DHT22;9489;50.948;3.114;2023-05-24T09:00:19;18.00;1.00
18721;DHT22;9489;50.948;3.114;2023-05-24T09:02:45;18.40;1.00
18721;DHT22;9489;50.948;3.114;2023-05-24T09:05:13;18.60;28.90
18721;DHT22;9489;50.948;3.114;2023-05-24T09:07:42;18.80;1.00
18721;DHT22;9489;50.948;3.114;2023-05-24T09:10:09;19.20;99.90
18721;DHT22;9489;50.948;3.114;2023-05-24T09:12:38;19.20;99.90
18721;DHT22;9489;50.948;3.114;2023-05-24T09:15:05;19.40;99.90
18721;DHT22;9489;50.948;3.114;2023-05-24T09:17:31;19.70;1.00
18721;DHT22;9489;50.948;3.114;2023-05-24T09:19:58;19.70;1.00
18721;DHT22;9489;50.948;3.114;2023-05-24T09:22:28;19.60;1.00
18721;DHT22;9489;50.948;3.114;2023-05-24T09:25:01;19.60;1.00
18721;DHT22;9489;50.948;3.114;2023-05-24T09:27:28;19.50;99.90
18721;DHT22;9489;50.948;3.114;2023-05-24T09:29:56;19.50;99.90
18721;DHT22;9489;50.948;3.114;2023-05-24T09:32:22;19.40;99.90
18721;DHT22;9489;50.948;3.114;2023-05-24T09:34:51;19.40;99.90
18721;DHT22;9489;50.948;3.114;2023-05-24T09:37:22;19.70;99.90
18721;DHT22;9489;50.948;3.114;2023-05-24T09:39:49;19.80;99.90
18721;DHT22;9489;50.948;3.114;2023-05-24T09:42:22;19.80;99.90
18721;DHT22;9489;50.948;3.114;2023-05-24T09:47:34;19.90;76.40
18721;DHT22;9489;50.948;3.114;2023-05-24T09:50:01;19.70;99.90
18721;DHT22;9489;50.948;3.114;2023-05-24T09:52:27;19.80;99.90
18721;DHT22;9489;50.948;3.114;2023-05-24T09:54:54;19.90;96.40
18721;DHT22;9489;50.948;3.114;2023-05-24T09:57:20;20.10;98.80
18721;DHT22;9489;50.948;3.114;2023-05-24T09:59:51;20.50;91.90
18721;DHT22;9489;50.948;3.114;2023-05-24T10:02:17;20.50;1.00
18721;DHT22;9489;50.948;3.114;2023-05-24T10:04:46;20.50;1.00
18721;DHT22;9489;50.948;3.114;2023-05-24T10:07:12;20.50;1.00
18721;DHT22;9489;50.948;3.114;2023-05-24T10:09:38;20.70;1.00
18721;DHT22;9489;50.948;3.114;2023-05-24T10:12:06;21.30;1.00
18721;DHT22;9489;50.948;3.114;2023-05-24T10:14:33;21.70;1.00
18721;DHT22;9489;50.948;3.114;2023-05-24T10:17:04;22.00;1.00
18721;DHT22;9489;50.948;3.114;2023-05-24T10:19:33;22.20;1.00
18721;DHT22;9489;50.948;3.114;2023-05-24T10:22:00;21.40;1.00
18721;DHT22;9489;50.948;3.114;2023-05-24T10:24:34;21.00;1.00
18721;DHT22;9489;50.948;3.114;2023-05-24T10:27:03;21.40;1.00
18721;DHT22;9489;50.948;3.114;2023-05-24T10:29:40;21.70;1.00
18721;DHT22;9489;50.948;3.114;2023-05-24T10:32:14;22.20;1.00
18721;DHT22;9489;50.948;3.114;2023-05-24T10:34:41;23.10;1.00
18721;DHT22;9489;50.948;3.114;2023-05-24T10:37:08;24.50;99.90
18721;DHT22;9489;50.948;3.114;2023-05-24T10:39:34;25.60;99.90
18721;DHT22;9489;50.948;3.114;2023-05-24T10:42:04;25.70;99.90
18721;DHT22;9489;50.948;3.114;2023-05-24T10:44:31;25.40;99.90
18721;DHT22;9489;50.948;3.114;2023-05-24T10:49:36;26.70;99.90
18721;DHT22;9489;50.948;3.114;2023-05-24T10:52:06;27.00;99.90
18721;DHT22;9489;50.948;3.114;2023-05-24T10:54:33;27.00;99.90
18721;DHT22;9489;50.948;3.114;2023-05-24T10:57:02;27.40;99.90
18721;DHT22;9489;50.948;3.114;2023-05-24T10:59:37;27.20;99.90
18721;DHT22;9489;50.948;3.114;2023-05-24T11:02:08;26.80;99.90
18721;DHT22;9489;50.948;3.114;2023-05-24T11:04:39;27.40;99.90
18721;DHT22;9489;50.948;3.114;2023-05-24T11:07:08;27.30;99.90
18721;DHT22;9489;50.948;3.114;2023-05-24T11:09:35;27.70;99.90
18721;DHT22;9489;50.948;3.114;2023-05-24T11:12:06;27.80;99.90
18721;DHT22;9489;50.948;3.114;2023-05-24T11:14:37;27.60;99.90
18721;DHT22;9489;50.948;3.114;2023-05-24T11:17:07;27.10;99.90
18721;DHT22;9489;50.948;3.114;2023-05-24T11:19:43;27.10;99.90
18721;DHT22;9489;50.948;3.114;2023-05-24T11:22:09;27.30;99.90
18721;DHT22;9489;50.948;3.114;2023-05-24T11:24:40;27.50;99.90
18721;DHT22;9489;50.948;3.114;2023-05-24T11:27:06;28.00;99.90
18721;DHT22;9489;50.948;3.114;2023-05-24T11:29:39;28.20;99.90
18721;DHT22;9489;50.948;3.114;2023-05-24T11:32:05;28.90;99.90
18721;DHT22;9489;50.948;3.114;2023-05-24T11:34:32;28.80;99.90
18721;DHT22;9489;50.948;3.114;2023-05-24T11:37:01;28.60;99.90
18721;DHT22;9489;50.948;3.114;2023-05-24T11:39:39;28.80;99.90
18721;DHT22;9489;50.948;3.114;2023-05-24T11:42:06;28.60;99.90
18721;DHT22;9489;50.948;3.114;2023-05-24T11:44:34;28.20;99.90
18721;DHT22;9489;50.948;3.114;2023-05-24T11:47:04;28.70;99.90
18721;DHT22;9489;50.948;3.114;2023-05-24T11:49:30;28.60;99.90
18721;DHT22;9489;50.948;3.114;2023-05-24T11:51:57;27.90;99.90
18721;DHT22;9489;50.948;3.114;2023-05-24T11:54:24;27.80;99.90
18721;DHT22;9489;50.948;3.114;2023-05-24T11:56:52;27.60;99.90
18721;DHT22;9489;50.948;3.114;2023-05-24T11:59:26;27.30;99.90
18721;DHT22;9489;50.948;3.114;2023-05-24T12:02:02;26.20;99.90
18721;DHT22;9489;50.948;3.114;2023-05-24T12:04:30;25.70;99.90
18721;DHT22;9489;50.948;3.114;2023-05-24T12:06:56;26.10;99.90
18721;DHT22;9489;50.948;3.114;2023-05-24T12:09:22;26.00;99.90
18721;DHT22;9489;50.948;3.114;2023-05-24T12:11:49;25.90;99.90
18721;DHT22;9489;50.948;3.114;2023-05-24T12:14:23;26.00;99.90
18721;DHT22;9489;50.948;3.114;2023-05-24T12:16:53;25.80;99.90
18721;DHT22;9489;50.948;3.114;2023-05-24T12:19:23;25.60;99.90
18721;DHT22;9489;50.948;3.114;2023-05-24T12:21:57;25.50;99.90
18721;DHT22;9489;50.948;3.114;2023-05-24T12:24:23;25.20;99.90
18721;DHT22;9489;50.948;3.114;2023-05-24T12:26:49;24.90;99.90
18721;DHT22;9489;50.948;3.114;2023-05-24T12:29:16;24.80;99.90
18721;DHT22;9489;50.948;3.114;2023-05-24T12:31:44;24.30;99.90
18721;DHT22;9489;50.948;3.114;2023-05-24T12:34:12;24.50;99.90
18721;DHT22;9489;50.948;3.114;2023-05-24T12:36:38;24.50;99.90
18721;DHT22;9489;50.948;3.114;2023-05-24T12:41:43;24.00;99.90
18721;DHT22;9489;50.948;3.114;2023-05-24T12:44:10;23.80;99.90
18721;DHT22;9489;50.948;3.114;2023-05-24T12:46:35;24.00;99.90
18721;DHT22;9489;50.948;3.114;2023-05-24T12:49:01;23.90;99.90
18721;DHT22;9489;50.948;3.114;2023-05-24T12:51:29;24.00;99.90
18721;DHT22;9489;50.948;3.114;2023-05-24T12:53:55;24.00;99.90
18721;DHT22;9489;50.948;3.114;2023-05-24T12:56:21;24.10;99.90
18721;DHT22;9489;50.948;3.114;2023-05-24T12:58:49;24.30;99.90
18721;DHT22;9489;50.948;3.114;2023-05-24T13:01:14;24.60;99.90
18721;DHT22;9489;50.948;3.114;2023-05-24T13:03:40;24.60;99.90
18721;DHT22;9489;50.948;3.114;2023-05-24T13:06:07;24.60;99.90
18721;DHT22;9489;50.948;3.114;2023-05-24T13:08:33;24.60;99.90
18721;DHT22;9489;50.948;3.114;2023-05-24T13:10:58;24.20;99.90
18721;DHT22;9489;50.948;3.114;2023-05-24T13:13:24;24.10;99.90
18721;DHT22;9489;50.948;3.114;2023-05-24T13:15:50;24.20;99.90
18721;DHT22;9489;50.948;3.114;2023-05-24T13:18:16;24.10;99.90
18721;DHT22;9489;50.948;3.114;2023-05-24T13:20:41;24.40;99.90
18721;DHT22;9489;50.948;3.114;2023-05-24T13:23:07;24.20;99.90
18721;DHT22;9489;50.948;3.114;2023-05-24T13:25:33;24.30;99.90
18721;DHT22;9489;50.948;3.114;2023-05-24T13:27:58;24.00;99.90
18721;DHT22;9489;50.948;3.114;2023-05-24T13:30:24;23.60;99.90
18721;DHT22;9489;50.948;3.114;2023-05-24T13:32:55;23.30;99.90
18721;DHT22;9489;50.948;3.114;2023-05-24T13:35:23;23.30;99.90
18721;DHT22;9489;50.948;3.114;2023-05-24T13:37:49;23.30;99.90
18721;DHT22;9489;50.948;3.114;2023-05-24T13:40:16;23.20;99.90
18721;DHT22;9489;50.948;3.114;2023-05-24T13:42:42;23.50;99.90
18721;DHT22;9489;50.948;3.114;2023-05-24T13:45:08;23.70;99.90
18721;DHT22;9489;50.948;3.114;2023-05-24T13:47:34;23.90;99.90
18721;DHT22;9489;50.948;3.114;2023-05-24T13:49:59;24.10;99.90
18721;DHT22;9489;50.948;3.114;2023-05-24T13:52:25;24.30;99.90
18721;DHT22;9489;50.948;3.114;2023-05-24T13:54:51;24.50;99.90
18721;DHT22;9489;50.948;3.114;2023-05-24T13:57:16;24.80;99.90
18721;DHT22;9489;50.948;3.114;2023-05-24T13:59:42;24.30;99.90
18721;DHT22;9489;50.948;3.114;2023-05-24T14:02:08;24.30;99.90
18721;DHT22;9489;50.948;3.114;2023-05-24T14:04:33;24.50;99.90
18721;DHT22;9489;50.948;3.114;2023-05-24T14:06:59;24.50;99.90
18721;DHT22;9489;50.948;3.114;2023-05-24T14:09:25;24.40;99.90
18721;DHT22;9489;50.948;3.114;2023-05-24T14:11:51;23.90;99.90
18721;DHT22;9489;50.948;3.114;2023-05-24T14:14:17;23.60;99.90
18721;DHT22;9489;50.948;3.114;2023-05-24T14:16:43;23.60;99.90
18721;DHT22;9489;50.948;3.114;2023-05-24T14:19:08;23.40;99.90
18721;DHT22;9489;50.948;3.114;2023-05-24T14:21:34;23.50;99.90
18721;DHT22;9489;50.948;3.114;2023-05-24T14:24:00;23.80;99.90
18721;DHT22;9489;50.948;3.114;2023-05-24T14:26:26;24.00;99.90
18721;DHT22;9489;50.948;3.114;2023-05-24T14:28:52;23.90;99.90
18721;DHT22;9489;50.948;3.114;2023-05-24T14:31:17;23.50;99.90
18721;DHT22;9489;50.948;3.114;2023-05-24T14:33:43;23.40;99.90
18721;DHT22;9489;50.948;3.114;2023-05-24T14:36:09;23.70;99.90
18721;DHT22;9489;50.948;3.114;2023-05-24T14:38:35;23.70;99.90
18721;DHT22;9489;50.948;3.114;2023-05-24T14:41:01;23.70;99.90
18721;DHT22;9489;50.948;3.114;2023-05-24T14:43:27;23.50;99.90
18721;DHT22;9489;50.948;3.114;2023-05-24T14:45:52;23.10;99.90
18721;DHT22;9489;50.948;3.114;2023-05-24T14:48:18;22.90;99.90
18721;DHT22;9489;50.948;3.114;2023-05-24T14:50:44;22.60;99.90
18721;DHT22;9489;50.948;3.114;2023-05-24T14:53:09;22.20;99.90
18721;DHT22;9489;50.948;3.114;2023-05-24T14:55:39;22.00;99.90
18721;DHT22;9489;50.948;3.114;2023-05-24T14:58:06;21.90;99.90
18721;DHT22;9489;50.948;3.114;2023-05-24T15:00:36;22.10;99.90
18721;DHT22;9489;50.948;3.114;2023-05-24T15:03:03;22.40;99.90
18721;DHT22;9489;50.948;3.114;2023-05-24T15:05:30;22.50;99.90
18721;DHT22;9489;50.948;3.114;2023-05-24T15:07:56;22.50;99.90
18721;DHT22;9489;50.948;3.114;2023-05-24T15:10:21;22.70;99.90
18721;DHT22;9489;50.948;3.114;2023-05-24T15:12:47;22.60;99.90
18721;DHT22;9489;50.948;3.114;2023-05-24T15:15:13;22.60;99.90
18721;DHT22;9489;50.948;3.114;2023-05-24T15:17:39;22.70;99.90
18721;DHT22;9489;50.948;3.114;2023-05-24T15:20:05;22.60;99.90
18721;DHT22;9489;50.948;3.114;2023-05-24T15:22:31;22.50;99.90
18721;DHT22;9489;50.948;3.114;2023-05-24T15:24:58;22.50;99.90
18721;DHT22;9489;50.948;3.114;2023-05-24T15:27:25;22.40;99.90
18721;DHT22;9489;50.948;3.114;2023-05-24T15:29:51;22.50;99.90
18721;DHT22;9489;50.948;3.114;2023-05-24T15:32:23;22.30;99.90
18721;DHT22;9489;50.948;3.114;2023-05-24T15:34:48;22.30;99.90
18721;DHT22;9489;50.948;3.114;2023-05-24T15:37:15;22.30;99.90
18721;DHT22;9489;50.948;3.114;2023-05-24T15:39:44;22.30;99.90
18721;DHT22;9489;50.948;3.114;2023-05-24T15:42:09;22.10;99.90
18721;DHT22;9489;50.948;3.114;2023-05-24T15:44:35;22.00;99.90
18721;DHT22;9489;50.948;3.114;2023-05-24T15:47:01;21.90;99.90
18721;DHT22;9489;50.948;3.114;2023-05-24T15:49:26;21.70;99.90
18721;DHT22;9489;50.948;3.114;2023-05-24T15:51:52;21.60;99.90
18721;DHT22;9489;50.948;3.114;2023-05-24T15:54:18;21.40;99.90
18721;DHT22;9489;50.948;3.114;2023-05-24T15:56:44;21.20;99.90
18721;DHT22;9489;50.948;3.114;2023-05-24T15:59:09;21.20;99.90
18721;DHT22;9489;50.948;3.114;2023-05-24T16:01:35;21.30;99.90
18721;DHT22;9489;50.948;3.114;2023-05-24T16:04:01;21.40;99.90
18721;DHT22;9489;50.948;3.114;2023-05-24T16:06:27;21.10;99.90
18721;DHT22;9489;50.948;3.114;2023-05-24T16:08:53;20.90;99.90
18721;DHT22;9489;50.948;3.114;2023-05-24T16:11:18;20.90;99.90
18721;DHT22;9489;50.948;3.114;2023-05-24T16:13:44;20.80;99.90
18721;DHT22;9489;50.948;3.114;2023-05-24T16:16:10;20.80;99.90
18721;DHT22;9489;50.948;3.114;2023-05-24T16:18:36;20.80;99.90